Pleasant Dale, Nebraska
Current Conditions -  °F | °C
As of 11:54 AM on Thursday 30 Oct 2014 (Local Time) from KLNK Reporting Station
Clear Clear  
Wind Chill: 61°   Ceiling: Unl
Heat Index: 61°   Visibility: 10mi
Dew Point: 39°   Wind: 21mph
Humidity: 44%   Direction: 340°NNW
Pressure: 30.12"   Gusts: 26mph
Location:  40.79°N, 96.93°W
Report Text: KLNK 301654Z 34018G23KT 10SM CLR 16/04 A3012 RMK AO2 SLP198 T01610039
Loading
Personal Weather Stations






























Interactive Weather Map
Tropical Storm Tracking
New forecast layout! Learn more

10-Day Weather Forecast

Advertisements
Track Severe Weather on mobile